PUA1366 SACO-SULS
Flight info
| Callsign | PUA1366 |
|---|---|
| Flight time | 1h 14m |
| Altitude | 37000 |
| Route | GENAS1G GENAS UW6 PAR UL417 CRR |
| Aircraft | A319/M-SDE3FGHIRWY/LB1 |
Departure
| Time | 2026-05-05 16:33 |
|---|---|
| Airport | Ingeniero Aeronáutico Ambrosio L.V. Taravella International Airport (SACO) |
Arrival
| Time | 2026-05-05 17:48 |
|---|---|
| Airport | Capitan Corbeta CA Curbelo International Airport (SULS) |
| Time | Latitude | Longitude | Altitude | Speed | Heading |
|---|---|---|---|---|---|
| 2026-05-05 16:06 | -31.31487 | -64.21182 | 1613 ft | 0 kts | 256° |
| 2026-05-05 16:24 | -31.31480 | -64.21133 | 1616 ft | 4 kts | 260° |
| 2026-05-05 16:25 | -31.31475 | -64.21102 | 1620 ft | 4 kts | 254° |
| 2026-05-05 16:25 | -31.31458 | -64.21080 | 1620 ft | 0 kts | 181° |
| 2026-05-05 16:28 | -31.31460 | -64.21080 | 1620 ft | 2 kts | 181° |
| 2026-05-05 16:28 | -31.31490 | -64.21080 | 1615 ft | 7 kts | 180° |
| 2026-05-05 16:28 | -31.31551 | -64.21087 | 1618 ft | 10 kts | 196° |
| 2026-05-05 16:29 | -31.31626 | -64.21103 | 1617 ft | 12 kts | 184° |
| 2026-05-05 16:29 | -31.31707 | -64.21088 | 1616 ft | 11 kts | 158° |
| 2026-05-05 16:29 | -31.31771 | -64.21043 | 1613 ft | 10 kts | 147° |
| 2026-05-05 16:29 | -31.31844 | -64.21025 | 1617 ft | 11 kts | 178° |
| 2026-05-05 16:30 | -31.31927 | -64.21022 | 1616 ft | 12 kts | 180° |
| 2026-05-05 16:30 | -31.32018 | -64.21023 | 1616 ft | 14 kts | 180° |
| 2026-05-05 16:30 | -31.32116 | -64.21022 | 1617 ft | 15 kts | 179° |
| 2026-05-05 16:30 | -31.32224 | -64.21020 | 1620 ft | 16 kts | 179° |
| 2026-05-05 16:31 | -31.32339 | -64.21019 | 1615 ft | 17 kts | 180° |
| 2026-05-05 16:31 | -31.32427 | -64.20954 | 1616 ft | 16 kts | 112° |
| 2026-05-05 16:31 | -31.32409 | -64.20860 | 1616 ft | 13 kts | 51° |
| 2026-05-05 16:31 | -31.32341 | -64.20781 | 1618 ft | 14 kts | 45° |
| 2026-05-05 16:32 | -31.32309 | -64.20744 | 1618 ft | 0 kts | 44° |
| 2026-05-05 16:32 | -31.32307 | -64.20742 | 1618 ft | 5 kts | 44° |
| 2026-05-05 16:33 | -31.32111 | -64.20515 | 1613 ft | 75 kts | 44° |
| 2026-05-05 16:33 | -31.31564 | -64.19905 | 1616 ft | 141 kts | 45° |
| 2026-05-05 16:33 | -31.30819 | -64.19058 | 2120 ft | 147 kts | 44° |
| 2026-05-05 16:33 | -31.30080 | -64.18196 | 2764 ft | 152 kts | 44° |
| 2026-05-05 16:34 | -31.29299 | -64.17302 | 3100 ft | 167 kts | 47° |
| 2026-05-05 16:34 | -31.28876 | -64.15977 | 3280 ft | 192 kts | 93° |
| 2026-05-05 16:34 | -31.29182 | -64.14372 | 3602 ft | 210 kts | 103° |
| 2026-05-05 16:34 | -31.29522 | -64.12681 | 4122 ft | 217 kts | 102° |
| 2026-05-05 16:35 | -31.29861 | -64.10889 | 4463 ft | 239 kts | 101° |
| 2026-05-05 16:35 | -31.30226 | -64.08889 | 4891 ft | 264 kts | 101° |
| 2026-05-05 16:35 | -31.30614 | -64.06733 | 5570 ft | 276 kts | 101° |
| 2026-05-05 16:35 | -31.31012 | -64.04512 | 6402 ft | 282 kts | 101° |
| 2026-05-05 16:36 | -31.31417 | -64.02241 | 7124 ft | 288 kts | 101° |
| 2026-05-05 16:36 | -31.31829 | -63.99920 | 7861 ft | 294 kts | 102° |
| 2026-05-05 16:36 | -31.32246 | -63.97563 | 8605 ft | 299 kts | 102° |
| 2026-05-05 16:36 | -31.32669 | -63.95160 | 9314 ft | 304 kts | 103° |
| 2026-05-05 16:37 | -31.33099 | -63.92714 | 9994 ft | 310 kts | 103° |
| 2026-05-05 16:37 | -31.33551 | -63.90155 | 10240 ft | 332 kts | 103° |
| 2026-05-05 16:37 | -31.34033 | -63.87416 | 10407 ft | 354 kts | 103° |
| 2026-05-05 16:37 | -31.34533 | -63.84560 | 10847 ft | 363 kts | 103° |
| 2026-05-05 16:38 | -31.35042 | -63.81636 | 11403 ft | 369 kts | 103° |
| 2026-05-05 16:38 | -31.35549 | -63.78714 | 11981 ft | 373 kts | 103° |
| 2026-05-05 16:38 | -31.36066 | -63.75718 | 12564 ft | 378 kts | 103° |
| 2026-05-05 16:38 | -31.36591 | -63.72683 | 13150 ft | 383 kts | 103° |
| 2026-05-05 16:39 | -31.37125 | -63.69617 | 13752 ft | 387 kts | 103° |
| 2026-05-05 16:39 | -31.37668 | -63.66505 | 14273 ft | 392 kts | 103° |
| 2026-05-05 16:39 | -31.38214 | -63.63370 | 14835 ft | 395 kts | 103° |
| 2026-05-05 16:39 | -31.38763 | -63.60203 | 15391 ft | 398 kts | 103° |
| 2026-05-05 16:40 | -31.39317 | -63.57010 | 15945 ft | 402 kts | 103° |
| 2026-05-05 16:40 | -31.39872 | -63.53796 | 16511 ft | 405 kts | 102° |
| 2026-05-05 16:40 | -31.40431 | -63.50542 | 17083 ft | 409 kts | 102° |
| 2026-05-05 16:40 | -31.40990 | -63.47264 | 17658 ft | 412 kts | 102° |
| 2026-05-05 16:41 | -31.41556 | -63.43959 | 18230 ft | 416 kts | 102° |
| 2026-05-05 16:41 | -31.42128 | -63.40623 | 18744 ft | 419 kts | 102° |
| 2026-05-05 16:41 | -31.42704 | -63.37255 | 19243 ft | 423 kts | 102° |
| 2026-05-05 16:41 | -31.43285 | -63.33858 | 19730 ft | 428 kts | 102° |
| 2026-05-05 16:42 | -31.43868 | -63.30429 | 20219 ft | 432 kts | 102° |
| 2026-05-05 16:42 | -31.44457 | -63.26953 | 20706 ft | 437 kts | 102° |
| 2026-05-05 16:42 | -31.45047 | -63.23447 | 21187 ft | 441 kts | 102° |
| 2026-05-05 16:42 | -31.45641 | -63.19906 | 21659 ft | 446 kts | 102° |
| 2026-05-05 16:43 | -31.46245 | -63.16328 | 22121 ft | 450 kts | 102° |
| 2026-05-05 16:43 | -31.46842 | -63.12713 | 22564 ft | 454 kts | 101° |
| 2026-05-05 16:43 | -31.47393 | -63.09047 | 23010 ft | 459 kts | 99° |
| 2026-05-05 16:43 | -31.47897 | -63.05391 | 23464 ft | 462 kts | 99° |
| 2026-05-05 16:44 | -31.48231 | -63.02876 | 23724 ft | 465 kts | 99° |
| 2026-05-05 16:44 | -31.48878 | -62.97896 | 24218 ft | 469 kts | 99° |
| 2026-05-05 16:44 | -31.49382 | -62.94106 | 24586 ft | 473 kts | 99° |
| 2026-05-05 16:44 | -31.49906 | -62.90287 | 24954 ft | 476 kts | 99° |
| 2026-05-05 16:45 | -31.50441 | -62.86455 | 25319 ft | 479 kts | 99° |
| 2026-05-05 16:45 | -31.50982 | -62.82586 | 25683 ft | 482 kts | 99° |
| 2026-05-05 16:45 | -31.51521 | -62.78702 | 26032 ft | 485 kts | 99° |
| 2026-05-05 16:45 | -31.52060 | -62.74782 | 26384 ft | 488 kts | 99° |
| 2026-05-05 16:46 | -31.52599 | -62.70843 | 26746 ft | 491 kts | 99° |
| 2026-05-05 16:46 | -31.53138 | -62.66875 | 27085 ft | 494 kts | 99° |
| 2026-05-05 16:46 | -31.53677 | -62.62884 | 27430 ft | 498 kts | 99° |
| 2026-05-05 16:46 | -31.54032 | -62.60220 | 27658 ft | 500 kts | 99° |
| 2026-05-05 16:47 | -31.54569 | -62.56181 | 28000 ft | 503 kts | 99° |
| 2026-05-05 16:47 | -31.55110 | -62.52117 | 28329 ft | 506 kts | 99° |
| 2026-05-05 16:47 | -31.55655 | -62.48037 | 28665 ft | 508 kts | 99° |
| 2026-05-05 16:47 | -31.56207 | -62.43928 | 28992 ft | 511 kts | 99° |
| 2026-05-05 16:48 | -31.56760 | -62.39801 | 29323 ft | 514 kts | 99° |
| 2026-05-05 16:48 | -31.57314 | -62.35648 | 29644 ft | 517 kts | 99° |
| 2026-05-05 16:48 | -31.57868 | -62.31470 | 29944 ft | 520 kts | 99° |
| 2026-05-05 16:48 | -31.58423 | -62.27269 | 30198 ft | 523 kts | 99° |
| 2026-05-05 16:49 | -31.58983 | -62.23040 | 30443 ft | 526 kts | 99° |
| 2026-05-05 16:49 | -31.59544 | -62.18793 | 30681 ft | 528 kts | 99° |
| 2026-05-05 16:49 | -31.60108 | -62.14528 | 30931 ft | 530 kts | 99° |
| 2026-05-05 16:49 | -31.60673 | -62.10248 | 31165 ft | 533 kts | 99° |
| 2026-05-05 16:50 | -31.61241 | -62.05940 | 31491 ft | 533 kts | 99° |
| 2026-05-05 16:50 | -31.61805 | -62.01645 | 31823 ft | 533 kts | 99° |
| 2026-05-05 16:50 | -31.62368 | -61.97345 | 32148 ft | 534 kts | 99° |
| 2026-05-05 16:50 | -31.62933 | -61.93037 | 32473 ft | 534 kts | 99° |
| 2026-05-05 16:51 | -31.63496 | -61.88724 | 32821 ft | 534 kts | 99° |
| 2026-05-05 16:51 | -31.64049 | -61.84472 | 33184 ft | 535 kts | 99° |
| 2026-05-05 16:51 | -31.64606 | -61.80163 | 33519 ft | 535 kts | 99° |
| 2026-05-05 16:51 | -31.65158 | -61.75852 | 33858 ft | 536 kts | 99° |
| 2026-05-05 16:52 | -31.65712 | -61.71522 | 34178 ft | 536 kts | 99° |
| 2026-05-05 16:52 | -31.66262 | -61.67189 | 34472 ft | 536 kts | 99° |
| 2026-05-05 16:52 | -31.66810 | -61.62857 | 34766 ft | 537 kts | 99° |
| 2026-05-05 16:52 | -31.67360 | -61.58516 | 35051 ft | 537 kts | 99° |
| 2026-05-05 16:53 | -31.67910 | -61.54174 | 35336 ft | 538 kts | 99° |
| 2026-05-05 16:53 | -31.68459 | -61.49830 | 35617 ft | 538 kts | 99° |
| 2026-05-05 16:53 | -31.69008 | -61.45477 | 35891 ft | 539 kts | 99° |
| 2026-05-05 16:53 | -31.69556 | -61.41130 | 36153 ft | 539 kts | 99° |
| 2026-05-05 16:54 | -31.70102 | -61.36774 | 36411 ft | 540 kts | 99° |
| 2026-05-05 16:54 | -31.70647 | -61.32401 | 36675 ft | 540 kts | 100° |
| 2026-05-05 16:54 | -31.71189 | -61.28036 | 36878 ft | 541 kts | 100° |
| 2026-05-05 16:54 | -31.71726 | -61.23724 | 36924 ft | 540 kts | 100° |
| 2026-05-05 16:55 | -31.72816 | -61.15007 | 36920 ft | 540 kts | 100° |
| 2026-05-05 16:55 | -31.73884 | -61.06285 | 36943 ft | 539 kts | 99° |
| 2026-05-05 16:56 | -31.74939 | -60.97575 | 36921 ft | 538 kts | 100° |
| 2026-05-05 16:56 | -31.75995 | -60.88868 | 36948 ft | 538 kts | 100° |
| 2026-05-05 16:57 | -31.77052 | -60.80161 | 36948 ft | 538 kts | 99° |
| 2026-05-05 16:57 | -31.78091 | -60.71450 | 36947 ft | 538 kts | 100° |
| 2026-05-05 16:58 | -31.79144 | -60.62746 | 36952 ft | 538 kts | 100° |
| 2026-05-05 16:58 | -31.80313 | -60.54058 | 36956 ft | 536 kts | 107° |
| 2026-05-05 16:59 | -31.82931 | -60.45968 | 36970 ft | 525 kts | 124° |
| 2026-05-05 16:59 | -31.87048 | -60.39044 | 36969 ft | 514 kts | 135° |
| 2026-05-05 17:00 | -31.91405 | -60.32447 | 36959 ft | 514 kts | 135° |
| 2026-05-05 17:00 | -31.95766 | -60.25787 | 36959 ft | 514 kts | 134° |
| 2026-05-05 17:01 | -32.00122 | -60.19111 | 36995 ft | 514 kts | 134° |
| 2026-05-05 17:01 | -32.04464 | -60.12456 | 36941 ft | 511 kts | 134° |
| 2026-05-05 17:02 | -32.08801 | -60.05812 | 36954 ft | 511 kts | 134° |
| 2026-05-05 17:02 | -32.13114 | -59.99212 | 36957 ft | 511 kts | 134° |
| 2026-05-05 17:03 | -32.17440 | -59.92565 | 36986 ft | 511 kts | 134° |
| 2026-05-05 17:03 | -32.21762 | -59.85894 | 36967 ft | 511 kts | 134° |
| 2026-05-05 17:04 | -32.26076 | -59.79230 | 36966 ft | 510 kts | 134° |
| 2026-05-05 17:04 | -32.30391 | -59.72560 | 36966 ft | 510 kts | 134° |
| 2026-05-05 17:05 | -32.34698 | -59.65897 | 36986 ft | 510 kts | 134° |
| 2026-05-05 17:05 | -32.39000 | -59.59223 | 36975 ft | 510 kts | 134° |
| 2026-05-05 17:06 | -32.43269 | -59.52593 | 36972 ft | 509 kts | 134° |
| 2026-05-05 17:06 | -32.47565 | -59.45909 | 37340 ft | 509 kts | 134° |
| 2026-05-05 17:07 | -32.49700 | -59.42579 | 37624 ft | 508 kts | 134° |
| 2026-05-05 17:07 | -32.51838 | -59.39244 | 37901 ft | 507 kts | 134° |
| 2026-05-05 17:07 | -32.53969 | -59.35912 | 38177 ft | 507 kts | 134° |
| 2026-05-05 17:07 | -32.56091 | -59.32585 | 38446 ft | 506 kts | 134° |
| 2026-05-05 17:08 | -32.58211 | -59.29251 | 38697 ft | 506 kts | 134° |
| 2026-05-05 17:08 | -32.60327 | -59.25915 | 38894 ft | 506 kts | 134° |
| 2026-05-05 17:08 | -32.64557 | -59.19251 | 38961 ft | 505 kts | 134° |
| 2026-05-05 17:09 | -32.68782 | -59.12590 | 38949 ft | 505 kts | 134° |
| 2026-05-05 17:09 | -32.73009 | -59.05915 | 38957 ft | 506 kts | 134° |
| 2026-05-05 17:10 | -32.77237 | -58.99228 | 38966 ft | 506 kts | 133° |
| 2026-05-05 17:10 | -32.81429 | -58.92580 | 38967 ft | 506 kts | 133° |
| 2026-05-05 17:11 | -32.85653 | -58.85874 | 39000 ft | 506 kts | 133° |
| 2026-05-05 17:11 | -32.89871 | -58.79154 | 38994 ft | 507 kts | 133° |
| 2026-05-05 17:12 | -32.94094 | -58.72418 | 38992 ft | 507 kts | 133° |
| 2026-05-05 17:12 | -32.98310 | -58.65681 | 38991 ft | 507 kts | 133° |
| 2026-05-05 17:13 | -33.02574 | -58.58988 | 39007 ft | 505 kts | 135° |
| 2026-05-05 17:13 | -33.07131 | -58.52660 | 38993 ft | 501 kts | 139° |
| 2026-05-05 17:14 | -33.11787 | -58.46553 | 38985 ft | 501 kts | 139° |
| 2026-05-05 17:14 | -33.16419 | -58.40315 | 39016 ft | 502 kts | 138° |
| 2026-05-05 17:15 | -33.20979 | -58.33993 | 39008 ft | 502 kts | 137° |
| 2026-05-05 17:15 | -33.25527 | -58.27659 | 39002 ft | 501 kts | 137° |
| 2026-05-05 17:16 | -33.30080 | -58.21349 | 39000 ft | 501 kts | 137° |
| 2026-05-05 17:16 | -33.34641 | -58.15049 | 39012 ft | 501 kts | 137° |
| 2026-05-05 17:17 | -33.39191 | -58.08744 | 39011 ft | 500 kts | 137° |
| 2026-05-05 17:17 | -33.43734 | -58.02440 | 39007 ft | 500 kts | 137° |
| 2026-05-05 17:18 | -33.48237 | -57.96171 | 39028 ft | 500 kts | 137° |
| 2026-05-05 17:18 | -33.52756 | -57.89854 | 39012 ft | 499 kts | 137° |
| 2026-05-05 17:19 | -33.57264 | -57.83539 | 39013 ft | 498 kts | 137° |
| 2026-05-05 17:19 | -33.61767 | -57.77215 | 39011 ft | 498 kts | 137° |
| 2026-05-05 17:20 | -33.66255 | -57.70898 | 39017 ft | 496 kts | 136° |
| 2026-05-05 17:20 | -33.70528 | -57.64371 | 38996 ft | 500 kts | 130° |
| 2026-05-05 17:21 | -33.74465 | -57.57470 | 39005 ft | 501 kts | 129° |
| 2026-05-05 17:22 | -33.80290 | -57.47017 | 39024 ft | 501 kts | 129° |
| 2026-05-05 17:22 | -33.84189 | -57.40071 | 39015 ft | 501 kts | 129° |
| 2026-05-05 17:23 | -33.88092 | -57.33139 | 39008 ft | 500 kts | 129° |
| 2026-05-05 17:23 | -33.91995 | -57.26198 | 39013 ft | 501 kts | 129° |
| 2026-05-05 17:24 | -33.95861 | -57.19287 | 39027 ft | 501 kts | 129° |
| 2026-05-05 17:24 | -33.99746 | -57.12326 | 39023 ft | 500 kts | 129° |
| 2026-05-05 17:25 | -34.03628 | -57.05368 | 39015 ft | 500 kts | 129° |
| 2026-05-05 17:25 | -34.07518 | -56.98384 | 38379 ft | 506 kts | 129° |
| 2026-05-05 17:25 | -34.09666 | -56.95070 | 37950 ft | 493 kts | 142° |
| 2026-05-05 17:26 | -34.12134 | -56.92249 | 37468 ft | 490 kts | 141° |
| 2026-05-05 17:26 | -34.14479 | -56.89237 | 36876 ft | 491 kts | 141° |
| 2026-05-05 17:26 | -34.16901 | -56.86332 | 36233 ft | 491 kts | 142° |
| 2026-05-05 17:26 | -34.19347 | -56.83444 | 35567 ft | 493 kts | 142° |
| 2026-05-05 17:27 | -34.21803 | -56.80548 | 34901 ft | 495 kts | 142° |
| 2026-05-05 17:27 | -34.24272 | -56.77642 | 34267 ft | 496 kts | 142° |
| 2026-05-05 17:27 | -34.26725 | -56.74775 | 33586 ft | 497 kts | 142° |
| 2026-05-05 17:27 | -34.29219 | -56.71873 | 32837 ft | 497 kts | 142° |
| 2026-05-05 17:28 | -34.31720 | -56.68977 | 32154 ft | 496 kts | 142° |
| 2026-05-05 17:28 | -34.34207 | -56.66107 | 31635 ft | 492 kts | 142° |
| 2026-05-05 17:28 | -34.36672 | -56.63265 | 31104 ft | 488 kts | 142° |
| 2026-05-05 17:28 | -34.39123 | -56.60444 | 30595 ft | 484 kts | 142° |
| 2026-05-05 17:29 | -34.41556 | -56.57651 | 30109 ft | 480 kts | 142° |
| 2026-05-05 17:29 | -34.43966 | -56.54887 | 29506 ft | 476 kts | 142° |
| 2026-05-05 17:29 | -34.46361 | -56.52144 | 28937 ft | 472 kts | 142° |
| 2026-05-05 17:29 | -34.48739 | -56.49424 | 28392 ft | 468 kts | 142° |
| 2026-05-05 17:30 | -34.51096 | -56.46732 | 27920 ft | 463 kts | 142° |
| 2026-05-05 17:30 | -34.53450 | -56.44050 | 27318 ft | 464 kts | 142° |
| 2026-05-05 17:30 | -34.55801 | -56.41380 | 26725 ft | 462 kts | 142° |
| 2026-05-05 17:30 | -34.58146 | -56.38722 | 26109 ft | 460 kts | 142° |
| 2026-05-05 17:31 | -34.60478 | -56.36083 | 25503 ft | 458 kts | 142° |
| 2026-05-05 17:31 | -34.62804 | -56.33457 | 24921 ft | 455 kts | 142° |
| 2026-05-05 17:31 | -34.65121 | -56.30845 | 24343 ft | 453 kts | 142° |
| 2026-05-05 17:31 | -34.67430 | -56.28248 | 23767 ft | 451 kts | 142° |
| 2026-05-05 17:32 | -34.69725 | -56.25670 | 23127 ft | 449 kts | 142° |
| 2026-05-05 17:32 | -34.72017 | -56.23100 | 22463 ft | 448 kts | 142° |
| 2026-05-05 17:32 | -34.74301 | -56.20536 | 21812 ft | 446 kts | 142° |
| 2026-05-05 17:32 | -34.76574 | -56.17987 | 21177 ft | 444 kts | 142° |
| 2026-05-05 17:33 | -34.78841 | -56.15449 | 20558 ft | 441 kts | 142° |
| 2026-05-05 17:33 | -34.81092 | -56.12927 | 19952 ft | 440 kts | 141° |
| 2026-05-05 17:33 | -34.83049 | -56.10074 | 19342 ft | 438 kts | 125° |
| 2026-05-05 17:33 | -34.84298 | -56.06714 | 18549 ft | 436 kts | 107° |
| 2026-05-05 17:34 | -34.84884 | -56.03119 | 17611 ft | 431 kts | 100° |
| 2026-05-05 17:34 | -34.85375 | -55.99592 | 16731 ft | 425 kts | 99° |
| 2026-05-05 17:34 | -34.85863 | -55.96061 | 15815 ft | 419 kts | 99° |
| 2026-05-05 17:34 | -34.86342 | -55.92585 | 14931 ft | 413 kts | 99° |
| 2026-05-05 17:35 | -34.86816 | -55.89161 | 14063 ft | 407 kts | 99° |
| 2026-05-05 17:35 | -34.87284 | -55.85791 | 13144 ft | 401 kts | 99° |
| 2026-05-05 17:35 | -34.87747 | -55.82460 | 12261 ft | 395 kts | 99° |
| 2026-05-05 17:35 | -34.88190 | -55.79258 | 12032 ft | 371 kts | 99° |
| 2026-05-05 17:36 | -34.88643 | -55.76230 | 11384 ft | 363 kts | 105° |
| 2026-05-05 17:36 | -34.89711 | -55.73475 | 10590 ft | 359 kts | 129° |
| 2026-05-05 17:36 | -34.91507 | -55.71489 | 10210 ft | 336 kts | 155° |
| 2026-05-05 17:36 | -34.93598 | -55.70591 | 9934 ft | 308 kts | 180° |
| 2026-05-05 17:37 | -34.94977 | -55.70596 | 9602 ft | 293 kts | 197° |
| 2026-05-05 17:37 | -34.96794 | -55.71469 | 9028 ft | 274 kts | 223° |
| 2026-05-05 17:37 | -34.97986 | -55.73154 | 8436 ft | 257 kts | 250° |
| 2026-05-05 17:37 | -34.98314 | -55.75222 | 7867 ft | 247 kts | 278° |
| 2026-05-05 17:38 | -34.97733 | -55.77141 | 7315 ft | 244 kts | 306° |
| 2026-05-05 17:38 | -34.96414 | -55.78423 | 6786 ft | 248 kts | 332° |
| 2026-05-05 17:38 | -34.94690 | -55.78817 | 6387 ft | 261 kts | 357° |
| 2026-05-05 17:38 | -34.92930 | -55.78135 | 6042 ft | 276 kts | 26° |
| 2026-05-05 17:39 | -34.91626 | -55.76355 | 5821 ft | 292 kts | 60° |
| 2026-05-05 17:39 | -34.91240 | -55.73890 | 5696 ft | 304 kts | 89° |
| 2026-05-05 17:39 | -34.91364 | -55.71309 | 5576 ft | 305 kts | 93° |
| 2026-05-05 17:39 | -34.91546 | -55.68766 | 5451 ft | 304 kts | 94° |
| 2026-05-05 17:40 | -34.91747 | -55.66174 | 5321 ft | 303 kts | 94° |
| 2026-05-05 17:40 | -34.91941 | -55.63654 | 5201 ft | 303 kts | 94° |
| 2026-05-05 17:40 | -34.92131 | -55.61106 | 5084 ft | 302 kts | 94° |
| 2026-05-05 17:40 | -34.92314 | -55.58563 | 4960 ft | 301 kts | 93° |
| 2026-05-05 17:41 | -34.92487 | -55.56048 | 4833 ft | 293 kts | 93° |
| 2026-05-05 17:41 | -34.92649 | -55.53607 | 4706 ft | 284 kts | 92° |
| 2026-05-05 17:41 | -34.92805 | -55.51254 | 4578 ft | 274 kts | 93° |
| 2026-05-05 17:41 | -34.92957 | -55.48974 | 4450 ft | 265 kts | 93° |
| 2026-05-05 17:42 | -34.93101 | -55.46778 | 4326 ft | 256 kts | 93° |
| 2026-05-05 17:42 | -34.93239 | -55.44654 | 4198 ft | 246 kts | 93° |
| 2026-05-05 17:42 | -34.93372 | -55.42602 | 4073 ft | 240 kts | 93° |
| 2026-05-05 17:42 | -34.93446 | -55.40592 | 3948 ft | 236 kts | 84° |
| 2026-05-05 17:43 | -34.93129 | -55.38651 | 3818 ft | 232 kts | 68° |
| 2026-05-05 17:43 | -34.92635 | -55.36787 | 3701 ft | 230 kts | 69° |
| 2026-05-05 17:43 | -34.92152 | -55.34932 | 3578 ft | 229 kts | 69° |
| 2026-05-05 17:43 | -34.91675 | -55.33083 | 3456 ft | 228 kts | 69° |
| 2026-05-05 17:44 | -34.91201 | -55.31248 | 3314 ft | 227 kts | 69° |
| 2026-05-05 17:44 | -34.90732 | -55.29429 | 3089 ft | 221 kts | 70° |
| 2026-05-05 17:44 | -34.90289 | -55.27708 | 2854 ft | 204 kts | 70° |
| 2026-05-05 17:44 | -34.89884 | -55.26134 | 2569 ft | 190 kts | 70° |
| 2026-05-05 17:45 | -34.89503 | -55.24658 | 2335 ft | 175 kts | 70° |
| 2026-05-05 17:45 | -34.89155 | -55.23317 | 2131 ft | 156 kts | 70° |
| 2026-05-05 17:45 | -34.88843 | -55.22119 | 1937 ft | 143 kts | 70° |
| 2026-05-05 17:45 | -34.88548 | -55.20990 | 1760 ft | 138 kts | 70° |
| 2026-05-05 17:46 | -34.88259 | -55.19887 | 1580 ft | 135 kts | 70° |
| 2026-05-05 17:46 | -34.87975 | -55.18800 | 1404 ft | 135 kts | 70° |
| 2026-05-05 17:46 | -34.87691 | -55.17716 | 1219 ft | 134 kts | 71° |
| 2026-05-05 17:46 | -34.87409 | -55.16637 | 1048 ft | 134 kts | 71° |
| 2026-05-05 17:47 | -34.87124 | -55.15564 | 867 ft | 132 kts | 70° |
| 2026-05-05 17:47 | -34.86841 | -55.14503 | 661 ft | 131 kts | 71° |
| 2026-05-05 17:47 | -34.86573 | -55.13454 | 484 ft | 129 kts | 72° |
| 2026-05-05 17:47 | -34.86302 | -55.12412 | 294 ft | 129 kts | 72° |
| 2026-05-05 17:48 | -34.86027 | -55.11384 | 153 ft | 128 kts | 71° |
| 2026-05-05 17:48 | -34.85770 | -55.10413 | 99 ft | 102 kts | 71° |
| 2026-05-05 17:48 | -34.85643 | -55.09943 | 102 ft | 11 kts | 72° |
| 2026-05-05 17:48 | -34.85645 | -55.09931 | 102 ft | 5 kts | 114° |
| 2026-05-05 17:49 | -34.85718 | -55.09888 | 101 ft | 12 kts | 163° |
| 2026-05-05 17:49 | -34.85750 | -55.09876 | 101 ft | 9 kts | 163° |
| 2026-05-05 17:49 | -34.85828 | -55.09846 | 101 ft | 7 kts | 161° |
| 2026-05-05 17:49 | -34.85873 | -55.09832 | 100 ft | 5 kts | 180° |
| 2026-05-05 17:50 | -34.85909 | -55.09888 | 100 ft | 8 kts | 254° |
| 2026-05-05 17:50 | -34.85935 | -55.09906 | 100 ft | 2 kts | 181° |
| 2026-05-05 17:50 | -34.85953 | -55.09900 | 100 ft | 2 kts | 160° |
| 2026-05-05 17:50 | -34.85960 | -55.09897 | 100 ft | 0 kts | 161° |